Airfield :
LOGIN :

Register | Disclaimer

   EN    FR    IT 

 










Legend :    VFR   Marginal VFR   IFR   Intensive IFR   Very Intensive IFR
Visi :
Ceiling :
>= 8 km
>= 3000ft
5 to 8 km
1000 to 3000 ft
1500m to 5 km
500 to 1000 ft
800 to 1500m
200 to 500 ft
< 800m
< 200 ft
Symbols :   Thunderstorms  Fog  Heavy snow  Heavy precipitations  Wind > 20 kt
SIGMETs :     Misc.  Thunderstorms  Icing  Turbulence  Mountain Waves  Volcanic Ashes







- Airport Elevation : 124 ft
- IATA code : NHT
- Download approach charts


EGWU - RAF Northolt

CURRENT METAR :
  • 250750Z 34004KT 9999 BKN009 14/11 Q1017 NOSIG

EXPIRED METARs :
  • 250650Z 34004KT 9999 BKN008 OVC014 13/12 Q1017 GRN NOSIG
  • 250550Z 34005KT 9000 -RA SCT008 BKN011 OVC021 13/12 Q1017 GRN NOSIG

TAF TAF EGWU
Valid from the 25 at 09:00 until the 26 at 03:00 UTC


250733Z 2509/2603 28004KT 9999 BKN010
BECMG 2509/2512 BKN020
BECMG 2512/2515 SCT030
PROB30
TEMPO 2516/2520 7000 SHRA SCT030CB
PROB40 2521/2603 7000 HZ
No reported NOTAMs for that airfield.



MET'MAP, your aeronautical weather chart ! - Copyright ORBIFLY December 2007 - Disclaimer

ORBIFLY MET'MAP TEAM :

Programming & Development : Alexandra Zaïnal
Concept & Development : Baudouin d'Aumeries
Co-Development & Prog : Marc-Olivier Méhu
Technical & hardware support : Manuel Goepfert

Contact : metmap@orbifly.com




SOURCES & CREDITS :

   NOAA